Portada
METAR-TAF:

METAR-TAF

Aeroports :

Ashland, Kentucky, Estats Units d'Amèrica

latitud: 38-33-16N, longitud: 082-44-17W, altitud: 166 m

Observació

L'informe es va fer fa 57 minuts, a les 07:56 UTC
Vent calma
Temperatura 26°C
Humitat 84%
Pressió 1012 hPa
Visibilitat: 16.1 km
Escasses núvols a una alçada de 11000 ft

METAR: KDWU 230756Z AUTO 00000KT 10SM FEW110 26/23 A2989 RMK AO2 SLP115 T02560228 $

Hora: 04:53 (08:53 UTC)


TAF: manca

Observacions i pronòstics meteorològics de més de 4000 aeroports (METAR i TAF).

Les estacions disponibles són els punts grocs i vermells al mapa.

Posi el ratolí al punt desitjat per veure el nom de l'estació.

Feu clic per veure les observacions i els pronòstics meteorològics.

Per canviar el mapa: feu clic els botons verds amb una creu de color negre per apropar; al botó verd amb un guió per allunyar la imatge; o en les fletxes verdes per a mapes adjacents.


METAR-TAF: